createdAt,value
2017-07-22T00:02:14.192Z,2.30
2017-07-22T00:04:41.219Z,2.50
2017-07-22T00:07:07.520Z,2.78
2017-07-22T00:09:33.895Z,1.90
2017-07-22T00:12:00.279Z,2.17
2017-07-22T00:14:26.676Z,2.70
2017-07-22T00:16:52.970Z,2.05
2017-07-22T00:19:20.027Z,1.98
2017-07-22T00:21:47.108Z,2.30
2017-07-22T00:24:13.477Z,2.62
2017-07-22T00:26:39.816Z,2.70
2017-07-22T00:29:06.148Z,1.95
2017-07-22T00:31:32.455Z,1.90
2017-07-22T00:33:58.785Z,2.33
2017-07-22T00:36:25.165Z,2.15
2017-07-22T00:38:52.239Z,1.85
2017-07-22T00:41:18.541Z,2.53
2017-07-22T00:43:44.992Z,2.80
2017-07-22T00:46:11.315Z,2.78
2017-07-22T00:48:37.608Z,3.40
2017-07-22T00:51:03.999Z,3.58
2017-07-22T00:53:30.404Z,3.20
2017-07-22T00:55:56.727Z,3.42
2017-07-22T00:58:23.092Z,3.50
2017-07-22T01:00:49.415Z,3.75
2017-07-22T01:03:15.756Z,3.50
2017-07-22T01:05:42.102Z,4.10
2017-07-22T01:08:08.399Z,3.95
2017-07-22T01:10:34.728Z,3.42
2017-07-22T01:13:01.031Z,3.53
2017-07-22T01:15:27.391Z,3.33
2017-07-22T01:17:53.696Z,3.58
2017-07-22T01:20:20.062Z,4.12
2017-07-22T01:22:46.419Z,3.10
2017-07-22T01:25:13.533Z,4.05
2017-07-22T01:27:39.852Z,3.47
2017-07-22T01:30:06.188Z,3.62
2017-07-22T01:32:32.564Z,3.17
2017-07-22T01:34:58.901Z,3.70
2017-07-22T01:37:26.288Z,4.80
2017-07-22T01:39:52.655Z,3.33
2017-07-22T01:42:19.006Z,4.55
2017-07-22T01:44:45.331Z,3.45
2017-07-22T01:47:11.806Z,4.00
2017-07-22T01:49:38.188Z,4.05
2017-07-22T01:52:04.552Z,3.87
2017-07-22T01:54:30.895Z,3.85
2017-07-22T01:56:57.252Z,3.60
2017-07-22T01:59:23.676Z,4.00
2017-07-22T02:01:50.101Z,3.92
2017-07-22T02:04:16.581Z,3.53
2017-07-22T02:06:42.971Z,4.55
2017-07-22T02:09:10.004Z,3.53
2017-07-22T02:11:37.039Z,5.00
2017-07-22T02:14:04.113Z,3.83
2017-07-22T02:16:30.515Z,4.35
2017-07-22T02:18:57.183Z,3.75
2017-07-22T02:21:23.497Z,3.75
2017-07-22T02:23:49.855Z,3.90
2017-07-22T02:26:16.214Z,4.03
2017-07-22T02:28:42.553Z,3.80
2017-07-22T02:31:09.658Z,3.75
2017-07-22T02:33:35.991Z,3.85
2017-07-22T02:36:02.377Z,4.22
2017-07-22T02:38:29.468Z,3.70
2017-07-22T02:40:55.835Z,3.62
2017-07-22T02:43:22.235Z,3.55
2017-07-22T02:45:48.539Z,4.28
2017-07-22T02:48:15.603Z,3.80
2017-07-22T02:50:41.958Z,3.40
2017-07-22T02:53:08.259Z,3.78
2017-07-22T02:55:34.552Z,3.85
2017-07-22T02:58:00.897Z,3.70
2017-07-22T03:00:27.947Z,3.55
2017-07-22T03:02:54.310Z,3.75
2017-07-22T03:05:20.671Z,4.82
2017-07-22T03:07:46.972Z,4.68
2017-07-22T03:10:13.291Z,5.85
2017-07-22T03:12:39.661Z,3.70
2017-07-22T03:15:05.971Z,4.10
2017-07-22T03:17:32.314Z,3.95
2017-07-22T03:19:58.919Z,4.50
2017-07-22T03:22:25.251Z,4.20
2017-07-22T03:24:51.637Z,5.05
2017-07-22T03:27:17.974Z,4.43
2017-07-22T03:29:44.351Z,5.10
2017-07-22T03:32:10.658Z,4.18
2017-07-22T03:34:37.760Z,4.10
2017-07-22T03:37:04.135Z,4.90
2017-07-22T03:39:31.167Z,5.72
2017-07-22T03:41:57.464Z,5.40
2017-07-22T03:44:23.792Z,6.28
2017-07-22T03:46:50.147Z,6.35
2017-07-22T03:49:16.451Z,6.30
2017-07-22T03:51:42.797Z,5.90
2017-07-22T03:54:09.131Z,5.93
2017-07-22T03:56:35.444Z,5.75
2017-07-22T03:59:01.841Z,6.32
2017-07-22T04:01:28.151Z,6.32
2017-07-22T04:03:54.502Z,6.35
2017-07-22T04:06:20.863Z,6.30
2017-07-22T04:08:47.177Z,6.50
2017-07-22T04:11:13.502Z,4.90
2017-07-22T04:13:39.794Z,4.62
2017-07-22T04:16:06.107Z,7.60
2017-07-22T04:18:32.439Z,6.85
2017-07-22T04:20:58.731Z,8.30
2017-07-22T04:23:25.051Z,11.30
2017-07-22T04:25:51.424Z,6.78
2017-07-22T04:28:17.816Z,6.30
2017-07-22T04:30:44.147Z,6.50
2017-07-22T04:33:10.460Z,7.72
2017-07-22T04:35:36.799Z,6.95
2017-07-22T04:38:03.107Z,6.57
2017-07-22T04:40:29.469Z,7.30
2017-07-22T04:42:55.816Z,8.45
2017-07-22T04:45:22.139Z,9.25
2017-07-22T04:47:48.438Z,8.40
2017-07-22T04:50:14.816Z,7.30
2017-07-22T04:52:41.175Z,7.85
2017-07-22T04:55:08.220Z,7.00
2017-07-22T04:57:35.312Z,7.37
2017-07-22T05:00:01.632Z,7.78
2017-07-22T05:02:28.000Z,7.43
2017-07-22T05:04:54.316Z,7.00
2017-07-22T05:07:20.653Z,7.45
2017-07-22T05:09:46.971Z,7.25
2017-07-22T05:12:13.346Z,9.13
2017-07-22T05:14:39.720Z,6.97
2017-07-22T05:17:06.031Z,7.05
2017-07-22T05:19:32.349Z,7.20
2017-07-22T05:21:58.690Z,9.88
2017-07-22T05:24:25.013Z,9.63
2017-07-22T05:26:52.051Z,10.63
2017-07-22T05:29:18.410Z,10.35
2017-07-22T05:31:44.776Z,10.40
2017-07-22T05:34:11.085Z,10.20
2017-07-22T05:36:37.414Z,10.73
2017-07-22T05:39:03.751Z,10.15
2017-07-22T05:41:30.068Z,9.88
2017-07-22T05:43:56.376Z,8.70
2017-07-22T05:46:22.788Z,8.68
2017-07-22T05:48:49.844Z,8.10
2017-07-22T05:51:16.248Z,6.82
2017-07-22T05:53:42.616Z,7.40
2017-07-22T05:56:08.920Z,6.35
2017-07-22T05:58:35.291Z,6.10
2017-07-22T06:01:01.617Z,6.90
2017-07-22T06:03:27.975Z,5.60
2017-07-22T06:05:54.311Z,8.05
2017-07-22T06:08:20.678Z,6.05
2017-07-22T06:10:46.975Z,14.38
2017-07-22T06:13:13.320Z,6.20
2017-07-22T06:15:39.673Z,5.10
2017-07-22T06:18:05.979Z,5.07
2017-07-22T06:20:32.380Z,7.80
2017-07-22T06:22:58.715Z,6.60
2017-07-22T06:25:25.024Z,4.87
2017-07-22T06:27:51.358Z,6.53
2017-07-22T06:30:17.663Z,5.20
2017-07-22T06:32:43.999Z,4.55
2017-07-22T06:35:11.069Z,4.50
2017-07-22T06:37:37.380Z,5.18
2017-07-22T06:40:04.482Z,3.62
2017-07-22T06:42:30.795Z,4.12
2017-07-22T06:44:57.135Z,4.15
2017-07-22T06:47:23.515Z,3.65
2017-07-22T06:49:50.604Z,3.53
2017-07-22T06:52:16.928Z,3.95
2017-07-22T06:54:43.259Z,4.40
2017-07-22T06:57:09.587Z,3.00
2017-07-22T06:59:35.915Z,3.85
2017-07-22T07:02:02.252Z,3.53
2017-07-22T07:04:28.586Z,2.95
2017-07-22T07:06:54.948Z,3.45
2017-07-22T07:09:21.288Z,2.67
2017-07-22T07:11:47.867Z,3.08
2017-07-22T07:14:14.422Z,3.55
2017-07-22T07:16:41.713Z,4.28
2017-07-22T07:19:08.048Z,3.10
2017-07-22T07:21:34.364Z,3.25
2017-07-22T07:24:00.679Z,3.30
2017-07-22T07:26:27.011Z,3.10
2017-07-22T07:28:53.341Z,4.90
2017-07-22T07:31:19.721Z,3.70
2017-07-22T07:33:46.035Z,4.80
2017-07-22T07:36:12.348Z,3.80
2017-07-22T07:38:38.688Z,2.80
2017-07-22T07:41:05.021Z,2.70
2017-07-22T07:43:32.071Z,3.03
2017-07-22T07:45:58.428Z,3.28
2017-07-22T07:48:24.768Z,5.22
2017-07-22T07:50:51.101Z,3.35
2017-07-22T07:53:17.472Z,3.10
2017-07-22T07:55:43.887Z,4.22
2017-07-22T07:58:10.205Z,3.42
2017-07-22T08:00:36.537Z,4.62
2017-07-22T08:03:02.913Z,4.12
2017-07-22T08:05:29.215Z,3.25
2017-07-22T08:07:55.708Z,4.47
2017-07-22T08:10:22.067Z,2.83
2017-07-22T08:12:48.375Z,2.97
2017-07-22T08:15:14.727Z,3.37
2017-07-22T08:17:41.217Z,2.80
2017-07-22T08:20:07.579Z,6.60
2017-07-22T08:22:33.981Z,3.30
2017-07-22T08:25:00.340Z,3.53
2017-07-22T08:27:26.671Z,3.15
2017-07-22T08:29:52.991Z,3.95
2017-07-22T08:32:19.351Z,3.20
2017-07-22T08:34:45.663Z,2.83
2017-07-22T08:37:12.091Z,4.00
2017-07-22T08:39:38.447Z,4.12
2017-07-22T08:42:04.781Z,3.10
2017-07-22T08:44:31.095Z,3.37
2017-07-22T08:46:57.474Z,3.10
2017-07-22T08:49:23.816Z,2.72
2017-07-22T08:51:50.867Z,8.10
2017-07-22T08:54:17.973Z,3.30
2017-07-22T08:56:44.340Z,3.45
2017-07-22T08:59:10.704Z,4.78
2017-07-22T09:01:37.013Z,3.65
2017-07-22T09:04:03.318Z,3.22
2017-07-22T09:06:29.679Z,4.28
2017-07-22T09:08:55.991Z,2.60
2017-07-22T09:11:22.334Z,3.30
2017-07-22T09:13:48.712Z,2.65
2017-07-22T09:16:15.053Z,2.42
2017-07-22T09:18:41.485Z,2.17
2017-07-22T09:21:07.803Z,3.03
2017-07-22T09:23:34.200Z,3.70
2017-07-22T09:26:00.552Z,2.42
2017-07-22T09:28:26.865Z,2.40
2017-07-22T09:30:53.181Z,3.53
2017-07-22T09:33:19.549Z,3.08
2017-07-22T09:35:45.917Z,3.47
2017-07-22T09:38:12.280Z,2.72
2017-07-22T09:40:38.648Z,3.05
2017-07-22T09:43:04.959Z,3.00
2017-07-22T09:45:31.275Z,2.75
2017-07-22T09:47:57.654Z,2.12
2017-07-22T09:50:24.006Z,2.33
2017-07-22T09:52:50.332Z,2.95
2017-07-22T09:55:16.684Z,4.95
2017-07-22T09:57:43.066Z,3.15
2017-07-22T10:00:10.208Z,2.62
2017-07-22T10:02:36.536Z,5.28
2017-07-22T10:05:02.910Z,2.80
2017-07-22T10:07:29.237Z,2.70
2017-07-22T10:09:55.556Z,3.58
2017-07-22T10:12:22.439Z,2.60
2017-07-22T10:14:48.784Z,3.37
2017-07-22T10:17:15.096Z,2.20
2017-07-22T10:19:41.517Z,3.05
2017-07-22T10:22:08.612Z,2.75
2017-07-22T10:24:34.988Z,2.70
2017-07-22T10:27:02.055Z,2.92
2017-07-22T10:29:28.399Z,7.12
2017-07-22T10:31:54.754Z,3.03
2017-07-22T10:34:21.060Z,2.30
2017-07-22T10:36:47.420Z,2.78
2017-07-22T10:39:13.773Z,3.65
2017-07-22T10:41:40.132Z,4.82
2017-07-22T10:44:06.440Z,3.97
2017-07-22T10:46:32.740Z,3.17
2017-07-22T10:48:59.863Z,3.22
2017-07-22T10:51:26.204Z,4.60
2017-07-22T10:53:52.582Z,4.65
2017-07-22T10:56:19.652Z,3.30
2017-07-22T10:58:45.967Z,3.25
2017-07-22T11:01:13.066Z,7.28
2017-07-22T11:03:39.404Z,3.70
2017-07-22T11:06:07.268Z,3.22
2017-07-22T11:08:33.600Z,3.70
2017-07-22T11:10:59.896Z,5.65
2017-07-22T11:13:26.235Z,5.25
2017-07-22T11:15:52.555Z,3.42
2017-07-22T11:18:18.864Z,3.05
2017-07-22T11:20:45.940Z,3.80
2017-07-22T11:23:12.286Z,5.60
2017-07-22T11:25:38.614Z,6.22
2017-07-22T11:28:04.933Z,3.70
2017-07-22T11:30:31.301Z,3.65
2017-07-22T11:32:57.717Z,4.90
2017-07-22T11:35:24.109Z,6.07
2017-07-22T11:37:50.527Z,3.03
2017-07-22T11:40:16.894Z,3.80
2017-07-22T11:42:43.220Z,3.45
2017-07-22T11:45:09.608Z,3.45
2017-07-22T11:47:36.755Z,5.68
2017-07-22T11:50:03.111Z,3.17
2017-07-22T11:52:30.148Z,3.30
2017-07-22T11:54:56.459Z,3.50
2017-07-22T11:57:22.879Z,4.62
2017-07-22T11:59:49.304Z,4.60
2017-07-22T12:02:15.786Z,3.90
2017-07-22T12:04:42.156Z,3.78
2017-07-22T12:07:09.326Z,4.28
2017-07-22T12:09:35.666Z,5.62
2017-07-22T12:12:01.987Z,3.60
2017-07-22T12:14:28.333Z,3.70
2017-07-22T12:16:54.701Z,3.92
2017-07-22T12:19:21.016Z,3.95
2017-07-22T12:21:47.403Z,3.70
2017-07-22T12:24:13.846Z,3.85
2017-07-22T12:26:40.167Z,3.90
2017-07-22T12:29:06.768Z,3.58
2017-07-22T12:31:33.527Z,3.40
2017-07-22T12:34:00.266Z,3.83
2017-07-22T12:36:26.720Z,3.37
2017-07-22T12:38:53.071Z,3.37
2017-07-22T12:41:20.169Z,4.40
2017-07-22T12:43:46.527Z,3.42
2017-07-22T12:46:12.934Z,3.83
2017-07-22T12:48:39.265Z,3.50
2017-07-22T12:51:05.615Z,4.35
2017-07-22T12:53:32.207Z,3.80
2017-07-22T12:55:58.569Z,3.37
2017-07-22T12:58:24.906Z,3.53
2017-07-22T13:00:51.236Z,6.95
2017-07-22T13:03:17.598Z,5.20
2017-07-22T13:05:44.724Z,4.03
2017-07-22T13:08:11.072Z,3.85
2017-07-22T13:10:37.469Z,3.55
2017-07-22T13:13:03.833Z,5.90
2017-07-22T13:15:30.168Z,4.45
2017-07-22T13:17:56.488Z,6.20
2017-07-22T13:20:22.804Z,3.87
2017-07-22T13:22:49.183Z,5.00
2017-07-22T13:25:16.289Z,4.82
2017-07-22T13:27:42.600Z,4.62
2017-07-22T13:30:08.935Z,3.40
2017-07-22T13:32:35.317Z,4.28
2017-07-22T13:35:02.372Z,3.70
2017-07-22T13:37:29.499Z,4.07
2017-07-22T13:39:56.604Z,3.85
2017-07-22T13:42:22.953Z,3.92
2017-07-22T13:44:49.277Z,4.87
2017-07-22T13:47:15.641Z,4.12
2017-07-22T13:49:41.960Z,3.92
2017-07-22T13:52:08.275Z,4.15
2017-07-22T13:54:34.674Z,4.20
2017-07-22T13:57:01.007Z,4.60
2017-07-22T13:59:27.546Z,4.10
2017-07-22T14:01:53.916Z,4.00
2017-07-22T14:04:20.233Z,3.72
2017-07-22T14:06:46.560Z,3.80
2017-07-22T14:09:12.915Z,3.87
2017-07-22T14:11:39.219Z,4.70
2017-07-22T14:14:05.524Z,4.60
2017-07-22T14:16:31.860Z,4.60
2017-07-22T14:18:58.200Z,5.03
2017-07-22T14:21:24.603Z,4.53
2017-07-22T14:23:50.944Z,5.05
2017-07-22T14:26:17.297Z,4.75
2017-07-22T14:28:43.599Z,4.97
2017-07-22T14:31:09.931Z,4.30
2017-07-22T14:33:36.272Z,4.30
2017-07-22T14:36:02.628Z,4.30
2017-07-22T14:38:29.012Z,4.80
2017-07-22T14:40:55.355Z,4.90
2017-07-22T14:43:21.692Z,5.00
2017-07-22T14:45:48.044Z,4.68
2017-07-22T14:48:14.408Z,5.15
2017-07-22T14:50:41.521Z,5.53
2017-07-22T14:53:07.852Z,4.95
2017-07-22T14:55:34.181Z,5.43
2017-07-22T14:58:00.524Z,5.80
2017-07-22T15:00:26.866Z,5.60
2017-07-22T15:02:53.952Z,5.35
2017-07-22T15:05:20.279Z,5.28
2017-07-22T15:07:46.577Z,6.05
2017-07-22T15:10:12.892Z,5.70
2017-07-22T15:12:39.240Z,6.20
2017-07-22T15:15:05.559Z,5.60
2017-07-22T15:17:31.907Z,5.30
2017-07-22T15:19:58.223Z,6.05
2017-07-22T15:22:24.559Z,6.18
2017-07-22T15:24:50.952Z,5.30
2017-07-22T15:27:17.300Z,5.55
2017-07-22T15:29:43.669Z,6.60
2017-07-22T15:32:10.264Z,5.95
2017-07-22T15:34:36.690Z,6.30
2017-07-22T15:37:03.144Z,7.18
2017-07-22T15:39:29.547Z,6.87
2017-07-22T15:41:55.915Z,6.28
2017-07-22T15:44:22.263Z,6.10
2017-07-22T15:46:48.572Z,6.90
2017-07-22T15:49:14.915Z,5.25
2017-07-22T15:51:42.138Z,6.12
2017-07-22T15:54:08.592Z,5.50
2017-07-22T15:56:34.941Z,6.12
2017-07-22T15:59:02.119Z,6.43
2017-07-22T16:01:28.522Z,5.55
2017-07-22T16:03:54.858Z,5.50
2017-07-22T16:06:21.322Z,6.15
2017-07-22T16:08:47.640Z,5.65
2017-07-22T16:11:14.062Z,5.03
2017-07-22T16:13:40.500Z,5.47
2017-07-22T16:16:06.899Z,5.55
2017-07-22T16:18:33.286Z,5.82
2017-07-22T16:20:59.762Z,4.60
2017-07-22T16:23:26.938Z,4.95
2017-07-22T16:25:53.319Z,5.10
2017-07-22T16:28:19.647Z,6.35
2017-07-22T16:30:46.099Z,5.55
2017-07-22T16:33:12.480Z,5.32
2017-07-22T16:35:38.800Z,5.57
2017-07-22T16:38:05.145Z,5.20
2017-07-22T16:40:31.512Z,5.82
2017-07-22T16:42:57.926Z,5.90
2017-07-22T16:45:25.191Z,6.53
2017-07-22T16:47:52.321Z,5.93
2017-07-22T16:50:18.741Z,5.85
2017-07-22T16:52:45.073Z,6.10
2017-07-22T16:55:11.484Z,5.43
2017-07-22T16:57:37.807Z,6.00
2017-07-22T17:00:04.287Z,6.07
2017-07-22T17:02:30.645Z,6.37
2017-07-22T17:04:57.736Z,6.35
2017-07-22T17:07:24.164Z,6.80
2017-07-22T17:09:50.616Z,6.60
2017-07-22T17:12:16.924Z,6.40
2017-07-22T17:14:43.263Z,5.85
2017-07-22T17:17:09.598Z,5.93
2017-07-22T17:19:35.945Z,6.47
2017-07-22T17:22:02.279Z,9.65
2017-07-22T17:24:28.599Z,7.70
2017-07-22T17:26:54.955Z,5.85
2017-07-22T17:29:21.276Z,5.45
2017-07-22T17:31:47.584Z,6.03
2017-07-22T17:34:13.964Z,6.80
2017-07-22T17:36:40.280Z,6.00
2017-07-22T17:39:06.601Z,6.05
2017-07-22T17:41:32.991Z,5.95
2017-07-22T17:43:59.346Z,5.75
2017-07-22T17:46:25.659Z,5.82
2017-07-22T17:48:52.039Z,6.07
2017-07-22T17:51:18.371Z,5.55
2017-07-22T17:53:45.147Z,5.90
2017-07-22T17:56:11.469Z,5.75
2017-07-22T17:58:37.849Z,5.18
2017-07-22T18:01:04.179Z,5.90
2017-07-22T18:03:30.513Z,5.37
2017-07-22T18:05:56.880Z,5.37
2017-07-22T18:08:23.216Z,5.10
2017-07-22T18:10:49.560Z,7.03
2017-07-22T18:13:15.962Z,6.22
2017-07-22T18:15:43.044Z,5.70
2017-07-22T18:18:09.455Z,6.28
2017-07-22T18:20:36.544Z,6.30
2017-07-22T18:23:02.887Z,6.68
2017-07-22T18:25:29.268Z,6.10
2017-07-22T18:27:55.653Z,6.62
2017-07-22T18:30:22.068Z,5.62
2017-07-22T18:32:48.418Z,5.70
2017-07-22T18:35:14.775Z,6.70
2017-07-22T18:37:41.892Z,6.78
2017-07-22T18:40:08.223Z,6.18
2017-07-22T18:42:34.567Z,5.75
2017-07-22T18:45:00.893Z,6.50
2017-07-22T18:47:27.299Z,5.80
2017-07-22T18:49:53.704Z,6.12
2017-07-22T18:52:20.025Z,5.68
2017-07-22T18:54:46.348Z,7.82
2017-07-22T18:57:12.723Z,5.37
2017-07-22T18:59:39.066Z,5.37
2017-07-22T19:02:05.423Z,5.43
2017-07-22T19:04:31.784Z,5.25
2017-07-22T19:06:58.100Z,5.85
2017-07-22T19:09:24.447Z,5.87
2017-07-22T19:11:50.825Z,5.50
2017-07-22T19:14:17.224Z,6.15
2017-07-22T19:16:43.591Z,5.95
2017-07-22T19:19:09.948Z,5.65
2017-07-22T19:21:36.281Z,6.95
2017-07-22T19:24:02.624Z,6.90
2017-07-22T19:26:29.012Z,6.22
2017-07-22T19:28:55.340Z,6.30
2017-07-22T19:31:21.667Z,7.57
2017-07-22T19:33:48.119Z,6.15
2017-07-22T19:36:14.443Z,6.47
2017-07-22T19:38:40.779Z,5.32
2017-07-22T19:41:07.087Z,7.10
2017-07-22T19:43:33.448Z,6.10
2017-07-22T19:46:00.554Z,6.15
2017-07-22T19:48:26.889Z,6.40
2017-07-22T19:50:53.269Z,6.10
2017-07-22T19:53:20.350Z,6.05
2017-07-22T19:55:46.691Z,6.30
2017-07-22T19:58:13.047Z,6.68
2017-07-22T20:00:39.360Z,6.80
2017-07-22T20:03:05.716Z,5.93
2017-07-22T20:05:32.084Z,5.90
2017-07-22T20:07:58.464Z,6.60
2017-07-22T20:10:24.788Z,5.40
2017-07-22T20:12:51.136Z,5.93
2017-07-22T20:15:17.478Z,6.18
2017-07-22T20:17:43.911Z,7.70
2017-07-22T20:20:10.306Z,9.23
2017-07-22T20:22:36.623Z,6.28
2017-07-22T20:25:02.971Z,6.20
2017-07-22T20:27:29.305Z,5.50
2017-07-22T20:29:55.623Z,6.95
2017-07-22T20:32:21.980Z,7.80
2017-07-22T20:34:48.295Z,6.32
2017-07-22T20:37:14.663Z,8.05
2017-07-22T20:39:41.015Z,6.07
2017-07-22T20:42:07.365Z,6.20
2017-07-22T20:44:33.714Z,6.28
2017-07-22T20:47:00.111Z,6.00
2017-07-22T20:49:26.425Z,6.37
2017-07-22T20:51:52.793Z,8.27
2017-07-22T20:54:19.184Z,6.57
2017-07-22T20:56:45.509Z,6.15
2017-07-22T20:59:11.884Z,6.35
2017-07-22T21:01:38.222Z,5.75
2017-07-22T21:04:04.650Z,6.82
2017-07-22T21:06:31.052Z,5.95
2017-07-22T21:08:57.424Z,6.32
2017-07-22T21:11:23.775Z,6.07
2017-07-22T21:13:50.108Z,5.30
2017-07-22T21:16:16.506Z,6.40
2017-07-22T21:18:42.863Z,5.60
2017-07-22T21:21:09.293Z,5.28
2017-07-22T21:23:35.616Z,5.60
2017-07-22T21:26:02.000Z,5.82
2017-07-22T21:28:28.486Z,6.20
2017-07-22T21:30:54.839Z,5.30
2017-07-22T21:33:21.927Z,6.32
2017-07-22T21:35:48.270Z,5.15
2017-07-22T21:38:14.599Z,5.25
2017-07-22T21:40:40.964Z,5.12
2017-07-22T21:43:07.328Z,5.15
2017-07-22T21:45:33.659Z,6.72
2017-07-22T21:47:59.988Z,6.18
2017-07-22T21:50:26.395Z,6.80
2017-07-22T21:52:52.715Z,5.30
2017-07-22T21:55:19.060Z,5.72
2017-07-22T21:57:45.513Z,4.85
2017-07-22T22:00:11.856Z,4.90
2017-07-22T22:02:38.211Z,6.10
2017-07-22T22:05:04.611Z,5.37
2017-07-22T22:07:30.939Z,5.00
2017-07-22T22:09:57.311Z,5.32
2017-07-22T22:12:23.661Z,5.10
2017-07-22T22:14:49.972Z,5.22
2017-07-22T22:17:16.304Z,5.32
2017-07-22T22:19:42.656Z,6.25
2017-07-22T22:22:09.707Z,5.22
2017-07-22T22:24:36.074Z,5.15
2017-07-22T22:27:02.445Z,4.87
2017-07-22T22:29:28.811Z,5.18
2017-07-22T22:31:55.851Z,6.25
2017-07-22T22:34:22.904Z,5.57
2017-07-22T22:36:49.268Z,5.87
2017-07-22T22:39:15.594Z,6.62
2017-07-22T22:41:41.984Z,5.90
2017-07-22T22:44:08.311Z,5.82
2017-07-22T22:46:34.626Z,4.95
2017-07-22T22:49:00.957Z,6.40
2017-07-22T22:51:27.360Z,5.53
2017-07-22T22:53:54.478Z,6.15
2017-07-22T22:56:20.816Z,5.35
2017-07-22T22:58:47.136Z,8.35
2017-07-22T23:01:13.519Z,5.62
2017-07-22T23:03:39.859Z,5.90
2017-07-22T23:06:06.243Z,6.43
2017-07-22T23:08:32.600Z,6.50
2017-07-22T23:10:58.992Z,6.22
2017-07-22T23:13:25.319Z,6.78
2017-07-22T23:15:52.388Z,7.40
2017-07-22T23:18:18.728Z,6.05
2017-07-22T23:20:45.439Z,6.32
2017-07-22T23:23:11.752Z,5.80
2017-07-22T23:25:38.215Z,6.25
2017-07-22T23:28:04.564Z,6.47
2017-07-22T23:30:30.906Z,6.62
2017-07-22T23:32:57.219Z,6.82
2017-07-22T23:35:23.614Z,6.90
2017-07-22T23:37:49.949Z,7.45
2017-07-22T23:40:16.243Z,7.82
2017-07-22T23:42:42.587Z,7.40
2017-07-22T23:45:08.974Z,7.22
2017-07-22T23:47:35.336Z,6.87
2017-07-22T23:50:01.731Z,7.22
2017-07-22T23:52:28.078Z,7.65
2017-07-22T23:54:55.155Z,7.37
2017-07-22T23:57:21.467Z,7.18
2017-07-22T23:59:47.787Z,6.72
